Terminal Aerodrome Forecast
Issued by NWS

Home | Current Version | Previous Version | Graphics & Text | Print | Product List | Glossary On
Versions: 1 2 3 4 5 6 7 8 9 10 11 12 13 14 15 16
149
FTUS43 KICT 041727
TAFSLN
TAF
KSLN 041727Z 0418/0518 29007KT P6SM SKC
     FM050000 23004KT P6SM SKC
     FM051400 18012G21KT P6SM FEW250=

USA.gov is the U.S. government's official web portal to all federal, state and local government web resources and services.